Time;durP1;ratioP1;P1;durP2;ratioP2;P2;SDS_P1;SDS_P2;PMS_P1;PMS_P2;Temp;Humidity;BMP_temperature;BMP_pressure;BME280_temperature;BME280_humidity;BME280_pressure;Samples;Min_cycle;Max_cycle;Signal;HPM_P1;HPM_P2
2021/12/22 00:02:26;;;;;;;114.18;39.85;;;;;;;-4.37;75.34;99392.31;5109897;28;20699;-80
2021/12/22 00:04:53;;;;;;;152.27;49.60;;;;;;;-4.33;75.55;99404.34;5109427;28;20455;-79
2021/12/22 00:07:19;;;;;;;164.68;52.55;;;;;;;-4.28;75.70;99409.16;5109987;28;20111;-81
2021/12/22 00:09:44;;;;;;;161.52;55.00;;;;;;;-4.24;75.71;99408.63;5109909;28;20161;-78
2021/12/22 00:12:11;;;;;;;147.73;49.00;;;;;;;-4.08;75.83;99421.13;5110060;28;20024;-86
2021/12/22 00:14:37;;;;;;;154.30;52.40;;;;;;;-4.04;76.07;99414.34;5109768;28;20026;-79
2021/12/22 00:17:03;;;;;;;174.23;56.38;;;;;;;-4.03;76.19;99423.25;5109792;28;20395;-80
2021/12/22 00:19:28;;;;;;;163.70;55.08;;;;;;;-4.04;75.69;99426.94;5109745;28;20030;-80
2021/12/22 00:21:54;;;;;;;161.00;53.90;;;;;;;-4.07;76.07;99417.38;5109161;28;20496;-79
2021/12/22 00:24:19;;;;;;;169.40;54.60;;;;;;;-4.09;76.00;99418.59;5109257;28;20030;-80
2021/12/22 00:26:45;;;;;;;169.15;55.85;;;;;;;-4.07;76.12;99421.94;5109247;28;20020;-79
2021/12/22 00:29:12;;;;;;;160.43;54.50;;;;;;;-4.07;76.04;99417.38;5109859;28;20076;-78
2021/12/22 00:31:45;;;;;;;141.68;49.13;;;;;;;-4.05;76.52;99427.94;5109280;28;20028;-80
2021/12/22 00:34:16;;;;;;;148.82;51.90;;;;;;;-4.09;76.19;99422.13;5109438;28;20080;-80
2021/12/22 00:36:43;;;;;;;143.07;49.45;;;;;;;-4.10;76.20;99423.13;5109089;28;20022;-77
2021/12/22 00:39:08;;;;;;;152.98;48.05;;;;;;;-4.11;76.58;99425.97;5091524;28;20039;-79
2021/12/22 00:41:34;;;;;;;144.82;48.33;;;;;;;-4.13;76.32;99428.00;5108631;28;20182;-78
2021/12/22 00:43:59;;;;;;;139.35;47.85;;;;;;;-4.10;76.66;99435.69;5109029;28;20540;-78
2021/12/22 00:46:24;;;;;;;120.82;43.67;;;;;;;-4.12;76.79;99438.53;5110095;28;20419;-77
2021/12/22 00:48:50;;;;;;;123.40;43.85;;;;;;;-4.13;76.76;99431.53;5108879;28;20488;-76
2021/12/22 00:51:15;;;;;;;115.22;42.80;;;;;;;-4.14;76.97;99431.69;5090849;28;20030;-82
2021/12/22 00:53:41;;;;;;;118.15;42.63;;;;;;;-4.14;76.81;99434.34;5109120;28;20015;-78
2021/12/22 00:56:07;;;;;;;117.13;41.45;;;;;;;-4.14;76.96;99443.25;5110181;28;20069;-82
2021/12/22 00:58:33;;;;;;;108.07;39.65;;;;;;;-4.11;77.00;99452.75;5109161;28;20019;-83
2021/12/22 01:00:59;;;;;;;95.32;35.50;;;;;;;-4.06;76.77;99443.19;5110151;28;20080;-79
2021/12/22 01:03:25;;;;;;;105.97;37.45;;;;;;;-4.07;77.22;99449.53;5108585;28;20050;-79
2021/12/22 01:05:51;;;;;;;103.93;37.40;;;;;;;-4.05;77.17;99444.84;5108612;28;20105;-80
2021/12/22 01:08:16;;;;;;;97.93;35.65;;;;;;;-4.03;77.41;99458.09;5109075;28;20059;-83
2021/12/22 01:10:42;;;;;;;92.55;34.20;;;;;;;-3.97;77.71;99449.34;5093166;28;20027;-84
2021/12/22 01:13:08;;;;;;;83.72;31.20;;;;;;;-3.89;77.32;99448.44;5108655;28;20027;-81
2021/12/22 01:15:35;;;;;;;88.50;33.05;;;;;;;-3.92;77.37;99452.31;5109021;28;20030;-84
2021/12/22 01:18:11;;;;;;;84.88;28.48;;;;;;;-3.95;77.71;99441.97;5109125;28;20038;-79
2021/12/22 01:20:52;;;;;;;69.68;26.23;;;;;;;-3.87;77.84;99454.47;5108909;28;20054;-79
2021/12/22 01:23:19;;;;;;;72.25;27.92;;;;;;;-3.83;77.51;99454.94;5107527;28;20055;-77
2021/12/22 01:25:47;;;;;;;77.40;29.33;;;;;;;-3.78;77.36;99456.09;5108283;28;20030;-78
2021/12/22 01:28:14;;;;;;;73.15;30.08;;;;;;;-3.71;77.74;99464.25;5090822;28;20422;-79
2021/12/22 01:30:43;;;;;;;82.25;31.98;;;;;;;-3.64;77.51;99469.72;5108728;28;20016;-77
2021/12/22 01:33:09;;;;;;;92.25;35.20;;;;;;;-3.59;77.92;99464.66;5108719;28;20055;-78
2021/12/22 01:35:35;;;;;;;77.55;30.92;;;;;;;-3.59;77.15;99459.28;5108897;28;20012;-78
2021/12/22 01:38:02;;;;;;;93.60;34.45;;;;;;;-3.59;77.01;99454.78;5108540;28;20032;-78
2021/12/22 01:40:28;;;;;;;83.82;30.80;;;;;;;-3.55;77.13;99457.09;5090594;28;20549;-78
2021/12/22 01:42:55;;;;;;;79.60;28.45;;;;;;;-3.58;77.29;99442.19;5108499;28;20023;-78
2021/12/22 01:51:28;;;;;;;89.55;31.40;;;;;;;-3.75;77.65;99450.38;5108646;28;20056;-79
2021/12/22 01:53:59;;;;;;;82.88;30.92;;;;;;;-3.80;77.56;99441.16;5109722;28;20035;-78
2021/12/22 01:56:27;;;;;;;86.57;32.17;;;;;;;-3.85;77.63;99446.22;5111714;28;20408;-78
2021/12/22 01:58:55;;;;;;;92.35;33.58;;;;;;;-3.83;77.32;99439.69;5111040;28;20024;-78
2021/12/22 02:01:22;;;;;;;83.18;31.65;;;;;;;-3.81;77.80;99444.88;5111122;28;20116;-78
2021/12/22 02:03:49;;;;;;;75.05;28.40;;;;;;;-3.79;77.71;99432.97;5092497;28;20062;-78
2021/12/22 02:06:16;;;;;;;80.53;32.20;;;;;;;-3.73;77.74;99450.19;5111228;28;20491;-79
2021/12/22 02:08:44;;;;;;;87.40;31.83;;;;;;;-3.63;78.11;99444.56;5111091;28;20012;-78
2021/12/22 02:11:11;;;;;;;74.15;30.48;;;;;;;-3.57;78.06;99445.72;5110655;28;20378;-79
2021/12/22 02:13:40;;;;;;;78.95;31.30;;;;;;;-3.58;77.91;99442.19;5093480;28;20849;-78
2021/12/22 02:16:13;;;;;;;85.78;32.60;;;;;;;-3.60;77.84;99447.75;5094223;28;20076;-78
2021/12/22 02:18:46;;;;;;;79.25;30.52;;;;;;;-3.59;78.06;99452.09;5093502;28;20016;-78
2021/12/22 02:21:12;;;;;;;82.22;31.23;;;;;;;-3.62;77.56;99444.41;5110940;28;20432;-79
2021/12/22 02:23:39;;;;;;;91.40;35.70;;;;;;;-3.62;77.60;99438.19;5093267;28;20016;-80
2021/12/22 02:26:11;;;;;;;78.03;30.95;;;;;;;-3.60;78.11;99449.56;5111696;28;20027;-79
2021/12/22 02:28:43;;;;;;;74.13;27.20;;;;;;;-3.65;77.82;99447.44;5111681;28;20830;-79
2021/12/22 02:31:13;;;;;;;74.85;29.02;;;;;;;-3.67;77.48;99451.31;5110596;28;20027;-79
2021/12/22 02:33:40;;;;;;;86.28;32.40;;;;;;;-3.67;78.08;99452.16;5093059;28;20047;-79
2021/12/22 02:36:10;;;;;;;71.35;27.15;;;;;;;-3.63;77.81;99447.25;5110828;28;20590;-79
2021/12/22 02:38:41;;;;;;;73.25;28.70;;;;;;;-3.65;78.07;99451.94;5092601;28;20472;-79
2021/12/22 02:41:10;;;;;;;74.72;30.42;;;;;;;-3.67;78.18;99446.78;5091463;28;20051;-78
2021/12/22 02:43:43;;;;;;;64.97;28.48;;;;;;;-3.66;78.52;99456.50;5093603;28;20894;-78
2021/12/22 02:46:09;;;;;;;66.13;27.27;;;;;;;-3.61;78.25;99451.44;5111304;28;20038;-78
2021/12/22 02:48:35;;;;;;;67.90;28.42;;;;;;;-3.56;78.54;99460.78;5111217;28;20020;-79
2021/12/22 02:51:02;;;;;;;69.55;28.80;;;;;;;-3.50;78.30;99460.06;5111377;28;20027;-78
2021/12/22 02:53:41;;;;;;;64.80;25.13;;;;;;;-3.52;78.16;99460.25;5092294;28;20038;-79
2021/12/22 02:59:01;;;;;;;61.03;24.48;;;;;;;-3.48;78.75;99450.81;5111470;28;20049;-79
2021/12/22 03:04:07;;;;;;;64.32;27.02;;;;;;;-3.45;78.28;99457.66;5110816;28;20050;-79
2021/12/22 03:06:54;;;;;;;74.13;29.33;;;;;;;-3.40;78.46;99451.78;5091575;28;20437;-79
2021/12/22 03:09:30;;;;;;;59.30;23.10;;;;;;;-3.36;78.54;99453.09;5109716;28;20048;-79
2021/12/22 03:11:58;;;;;;;67.05;28.00;;;;;;;-3.35;77.92;99460.13;5092198;28;20027;-79
2021/12/22 03:14:24;;;;;;;63.67;25.05;;;;;;;-3.41;78.67;99455.47;5110930;28;20496;-78
2021/12/22 03:16:50;;;;;;;55.22;22.73;;;;;;;-3.46;78.30;99458.66;5110389;28;20043;-78
2021/12/22 03:19:19;;;;;;;60.28;24.35;;;;;;;-3.53;78.59;99457.75;5091074;28;20157;-78
2021/12/22 03:21:46;;;;;;;60.65;25.35;;;;;;;-3.57;78.70;99457.25;5092365;28;20134;-78
2021/12/22 03:24:13;;;;;;;53.13;21.10;;;;;;;-3.52;78.88;99462.09;5092501;28;20058;-78
2021/12/22 03:26:42;;;;;;;64.90;27.25;;;;;;;-3.53;78.60;99465.78;5111015;28;20027;-78
2021/12/22 03:29:16;;;;;;;56.83;23.17;;;;;;;-3.56;78.47;99458.94;5110410;28;20051;-78
2021/12/22 03:31:43;;;;;;;53.25;24.30;;;;;;;-3.54;78.52;99462.25;5110909;28;20288;-78
2021/12/22 03:34:09;;;;;;;51.45;21.90;;;;;;;-3.53;78.38;99466.63;5110642;28;20024;-79
2021/12/22 03:36:36;;;;;;;53.25;23.20;;;;;;;-3.55;78.40;99465.97;5110958;28;20031;-80
2021/12/22 03:39:05;;;;;;;47.08;20.83;;;;;;;-3.55;78.45;99462.47;5110213;28;20023;-78
2021/12/22 03:41:31;;;;;;;52.10;24.50;;;;;;;-3.48;78.74;99474.16;5092073;28;20844;-79
2021/12/22 03:43:56;;;;;;;55.95;23.95;;;;;;;-3.43;78.88;99471.72;5112173;28;20032;-79
2021/12/22 03:46:22;;;;;;;47.65;20.67;;;;;;;-3.46;78.81;99466.72;5092699;28;20035;-78
2021/12/22 03:48:47;;;;;;;51.88;22.88;;;;;;;-3.50;78.87;99473.47;5111704;28;20031;-78
2021/12/22 03:51:12;;;;;;;52.92;22.08;;;;;;;-3.52;78.83;99468.28;5111223;28;20020;-78
2021/12/22 03:53:38;;;;;;;47.28;21.65;;;;;;;-3.52;78.61;99470.16;5111707;28;20053;-78
2021/12/22 03:56:04;;;;;;;46.10;18.88;;;;;;;-3.52;78.88;99470.97;5092051;28;20039;-79
2021/12/22 03:58:30;;;;;;;42.50;18.13;;;;;;;-3.51;78.75;99472.63;5110784;28;20694;-79
2021/12/22 04:00:56;;;;;;;44.70;19.02;;;;;;;-3.51;78.85;99467.28;5092862;28;20020;-79
2021/12/22 04:03:25;;;;;;;47.35;21.50;;;;;;;-3.44;79.03;99462.88;5110581;28;20130;-78
2021/12/22 04:05:51;;;;;;;43.67;18.98;;;;;;;-3.39;78.96;99470.34;5111409;28;20027;-78
2021/12/22 04:08:18;;;;;;;40.53;19.02;;;;;;;-3.40;79.06;99471.38;5110768;28;20026;-79
2021/12/22 04:10:46;;;;;;;41.75;19.65;;;;;;;-3.38;78.94;99472.03;5110995;28;20107;-79
2021/12/22 04:13:11;;;;;;;42.13;19.25;;;;;;;-3.38;79.44;99476.56;5110527;28;20030;-78
2021/12/22 04:15:37;;;;;;;40.10;18.77;;;;;;;-3.35;78.94;99470.84;5092969;28;20558;-78
2021/12/22 04:18:02;;;;;;;41.45;18.40;;;;;;;-3.34;79.15;99467.16;5110089;28;20098;-78
2021/12/22 04:20:29;;;;;;;40.20;19.35;;;;;;;-3.33;78.69;99469.63;5110972;28;20073;-78
2021/12/22 04:22:55;;;;;;;39.83;17.13;;;;;;;-3.35;78.91;99468.97;5109993;28;20435;-78
2021/12/22 04:25:21;;;;;;;33.33;16.10;;;;;;;-3.27;79.26;99472.63;5110541;28;20035;-78
2021/12/22 04:27:52;;;;;;;31.75;13.93;;;;;;;-3.24;79.11;99466.88;5091917;28;20489;-78
2021/12/22 04:30:19;;;;;;;32.45;15.02;;;;;;;-3.17;79.44;99475.88;5110848;28;20488;-78
2021/12/22 04:32:45;;;;;;;32.45;16.85;;;;;;;-3.17;79.20;99473.22;5091847;28;20022;-78
2021/12/22 04:35:10;;;;;;;35.53;15.70;;;;;;;-3.15;79.34;99481.91;5110573;28;20027;-78
2021/12/22 04:37:36;;;;;;;28.77;14.60;;;;;;;-3.13;79.05;99477.19;5110534;28;20123;-79
2021/12/22 04:40:03;;;;;;;32.90;15.73;;;;;;;-3.10;79.23;99476.84;5110404;28;20384;-78
2021/12/22 04:42:28;;;;;;;32.80;16.08;;;;;;;-3.12;78.90;99481.53;5109053;28;20023;-78
2021/12/22 04:44:56;;;;;;;38.33;17.08;;;;;;;-3.11;79.57;99483.22;5109937;28;20023;-78
2021/12/22 04:47:22;;;;;;;29.70;13.70;;;;;;;-3.03;79.44;99485.81;5109714;28;20023;-78
2021/12/22 04:49:47;;;;;;;35.40;16.40;;;;;;;-3.05;79.24;99487.81;5110515;28;20077;-78
2021/12/22 04:52:21;;;;;;;30.27;15.35;;;;;;;-3.03;79.16;99475.06;5109962;28;20027;-79
2021/12/22 04:55:03;;;;;;;30.83;14.77;;;;;;;-3.03;79.19;99482.28;5109323;28;20019;-78
2021/12/22 04:57:32;;;;;;;29.80;13.63;;;;;;;-3.06;79.11;99482.66;5108587;28;20019;-78
2021/12/22 04:59:59;;;;;;;27.17;13.67;;;;;;;-3.14;79.09;99487.09;5109875;28;20146;-78
2021/12/22 05:02:24;;;;;;;26.80;13.13;;;;;;;-3.14;79.49;99492.44;5109890;28;20031;-78
2021/12/22 05:04:50;;;;;;;27.55;13.60;;;;;;;-3.12;79.44;99486.06;5106989;28;20420;-78
2021/12/22 05:07:15;;;;;;;30.50;14.68;;;;;;;-3.15;79.04;99482.72;5113184;27;20503;-79
2021/12/22 05:09:40;;;;;;;24.33;11.25;;;;;;;-3.09;79.13;99488.38;5111725;28;20483;-79
2021/12/22 05:12:06;;;;;;;24.60;12.60;;;;;;;-3.04;79.42;99492.19;5111163;28;20024;-79
2021/12/22 05:14:32;;;;;;;25.40;12.23;;;;;;;-3.02;79.20;99490.16;5111512;28;20026;-79
2021/12/22 05:17:03;;;;;;;26.80;13.60;;;;;;;-3.03;79.19;99496.53;5110984;28;20023;-79
2021/12/22 05:19:29;;;;;;;29.00;13.88;;;;;;;-3.04;79.16;99486.00;5111346;28;20092;-79
2021/12/22 05:21:54;;;;;;;26.85;12.40;;;;;;;-3.10;78.84;99490.25;5111129;28;20480;-79
2021/12/22 05:24:20;;;;;;;25.88;12.75;;;;;;;-3.18;79.15;99482.28;5111379;28;20429;-79
2021/12/22 05:26:46;;;;;;;26.25;13.73;;;;;;;-3.20;79.19;99474.38;5111447;28;20047;-80
2021/12/22 05:29:14;;;;;;;28.55;13.85;;;;;;;-3.23;79.25;99482.78;5110493;28;20035;-79
2021/12/22 05:31:40;;;;;;;29.90;14.02;;;;;;;-3.30;79.19;99489.91;5111205;28;20035;-78
2021/12/22 05:34:06;;;;;;;25.85;13.55;;;;;;;-3.33;79.33;99482.22;5110717;28;20024;-79
2021/12/22 05:36:32;;;;;;;36.75;15.18;;;;;;;-3.30;79.56;99493.44;5110911;28;20047;-78
2021/12/22 05:38:57;;;;;;;30.55;14.93;;;;;;;-3.26;79.32;99483.16;5111060;28;20028;-77
2021/12/22 05:41:23;;;;;;;27.42;14.02;;;;;;;-3.31;79.07;99491.75;5092579;28;20020;-77
2021/12/22 05:43:49;;;;;;;32.45;14.10;;;;;;;-3.35;79.03;99498.50;5110903;28;20031;-77
2021/12/22 05:46:14;;;;;;;26.58;14.32;;;;;;;-3.32;79.05;99497.31;5111606;28;20027;-78
2021/12/22 05:48:40;;;;;;;37.88;16.85;;;;;;;-3.27;79.51;99494.94;5110837;28;20135;-78
2021/12/22 05:51:06;;;;;;;27.55;12.15;;;;;;;-3.24;79.55;99507.97;5110830;28;20028;-78
2021/12/22 05:53:32;;;;;;;29.23;13.50;;;;;;;-3.24;78.82;99496.41;5110834;28;20012;-79
2021/12/22 05:55:58;;;;;;;30.65;14.68;;;;;;;-3.24;79.57;99507.13;5110968;28;20035;-78
2021/12/22 05:58:24;;;;;;;27.67;13.48;;;;;;;-3.27;79.29;99510.19;5110646;28;20020;-78
2021/12/22 06:00:50;;;;;;;28.58;14.15;;;;;;;-3.28;79.27;99512.03;5111176;28;20161;-78
2021/12/22 06:03:16;;;;;;;31.55;14.75;;;;;;;-3.26;79.25;99507.31;5109636;28;20123;-78
2021/12/22 06:05:42;;;;;;;30.27;14.07;;;;;;;-3.27;79.29;99520.91;5109937;28;20043;-79
2021/12/22 06:08:08;;;;;;;36.95;18.63;;;;;;;-3.26;79.13;99511.84;5111479;28;20457;-78
2021/12/22 06:10:34;;;;;;;28.17;13.45;;;;;;;-3.24;79.04;99529.41;5110973;28;20032;-78
2021/12/22 06:13:08;;;;;;;32.75;13.98;;;;;;;-3.26;79.25;99533.31;5110479;28;20380;-79
2021/12/22 06:15:34;;;;;;;56.67;21.05;;;;;;;-3.25;79.17;99530.44;5110281;28;20413;-78
2021/12/22 06:18:01;;;;;;;73.63;26.15;;;;;;;-3.28;79.50;99536.19;5109307;28;20062;-79
2021/12/22 06:20:27;;;;;;;32.28;15.35;;;;;;;-3.33;79.50;99544.75;5109971;28;20409;-79
2021/12/22 06:22:53;;;;;;;27.85;12.93;;;;;;;-3.32;79.69;99546.44;5109260;28;20030;-79
2021/12/22 06:25:20;;;;;;;29.63;13.02;;;;;;;-3.35;79.32;99557.50;5110521;28;20016;-79
2021/12/22 06:27:45;;;;;;;44.33;15.40;;;;;;;-3.37;79.72;99551.50;5110644;28;20062;-79
2021/12/22 06:30:11;;;;;;;36.90;12.15;;;;;;;-3.41;79.41;99552.84;5110880;28;20062;-76
2021/12/22 06:32:37;;;;;;;36.58;9.40;;;;;;;-3.41;79.08;99552.03;5109047;28;20031;-79
2021/12/22 06:35:03;;;;;;;27.45;9.50;;;;;;;-3.44;79.11;99561.25;5111029;28;20038;-79
2021/12/22 06:37:28;;;;;;;35.58;11.23;;;;;;;-3.44;78.54;99569.31;5112316;28;20038;-79
2021/12/22 06:39:54;;;;;;;19.48;6.75;;;;;;;-3.44;78.58;99575.50;5092882;28;20057;-80
2021/12/22 06:42:19;;;;;;;13.85;6.00;;;;;;;-3.44;78.19;99569.31;5095920;28;20028;-80
2021/12/22 06:44:45;;;;;;;22.73;9.48;;;;;;;-3.42;78.01;99569.97;5114177;28;20031;-80
2021/12/22 06:47:10;;;;;;;25.73;10.52;;;;;;;-3.39;78.43;99577.66;5114583;27;20080;-80
2021/12/22 06:49:36;;;;;;;24.13;10.23;;;;;;;-3.37;77.92;99582.84;5109908;28;20023;-81
2021/12/22 06:52:02;;;;;;;24.63;10.88;;;;;;;-3.33;78.40;99587.69;5112623;28;20027;-82
2021/12/22 06:54:27;;;;;;;35.70;14.13;;;;;;;-3.31;77.94;99590.19;5115461;27;20096;-79
2021/12/22 06:56:53;;;;;;;27.25;13.57;;;;;;;-3.29;77.71;99597.03;5115364;28;20532;-83
2021/12/22 06:59:18;;;;;;;25.25;11.45;;;;;;;-3.23;78.16;99595.50;5117283;27;20027;-82
2021/12/22 07:01:45;;;;;;;45.67;15.13;;;;;;;-3.20;77.99;99595.13;5115417;27;20020;-83
2021/12/22 07:04:11;;;;;;;33.83;13.25;;;;;;;-3.20;78.00;99605.03;5116220;27;20043;-83
2021/12/22 07:06:36;;;;;;;42.55;16.05;;;;;;;-3.24;77.67;99614.47;5114909;27;20670;-83
2021/12/22 07:09:03;;;;;;;46.67;16.45;;;;;;;-3.30;77.86;99610.66;5114465;28;20192;-85
2021/12/22 07:11:28;;;;;;;41.85;15.95;;;;;;;-3.35;77.65;99613.03;5112749;28;20070;-82
2021/12/22 07:13:54;;;;;;;67.50;21.75;;;;;;;-3.39;77.85;99611.72;5113107;28;20120;-82
2021/12/22 07:16:19;;;;;;;88.22;29.58;;;;;;;-3.45;78.03;99626.63;5116778;27;20383;-82
2021/12/22 07:18:45;;;;;;;85.10;26.90;;;;;;;-3.45;77.55;99615.91;5115122;27;20028;-82
2021/12/22 07:21:11;;;;;;;56.38;21.00;;;;;;;-3.49;78.21;99615.44;5111838;27;20054;-83
2021/12/22 07:23:36;;;;;;;81.45;22.58;;;;;;;-3.47;78.18;99624.16;5112027;27;20019;-79
2021/12/22 07:26:02;;;;;;;63.55;18.42;;;;;;;-3.44;78.14;99623.78;5111850;28;20091;-81
2021/12/22 07:28:27;;;;;;;53.42;19.48;;;;;;;-3.44;77.86;99631.84;5112139;28;20540;-79
2021/12/22 07:30:53;;;;;;;58.75;22.17;;;;;;;-3.44;78.06;99622.94;5112376;28;20020;-80
2021/12/22 07:33:18;;;;;;;39.03;16.85;;;;;;;-3.39;78.25;99630.50;5113032;27;20027;-82
2021/12/22 07:36:00;;;;;;;63.08;21.65;;;;;;;-3.42;78.06;99639.69;5113364;28;20024;-82
2021/12/22 07:38:29;;;;;;;54.33;18.65;;;;;;;-3.43;77.88;99643.41;5108578;28;20024;-79
2021/12/22 07:40:59;;;;;;;58.83;22.08;;;;;;;-3.48;77.58;99643.94;5112054;28;20024;-82
2021/12/22 07:43:25;;;;;;;44.30;18.27;;;;;;;-3.48;77.68;99653.84;5114232;27;20019;-81
2021/12/22 07:45:52;;;;;;;40.97;16.95;;;;;;;-3.47;77.91;99647.47;5094688;28;20032;-81
2021/12/22 07:48:17;;;;;;;31.10;15.50;;;;;;;-3.47;77.72;99644.78;5112470;28;20028;-81
2021/12/22 07:50:43;;;;;;;31.02;15.43;;;;;;;-3.45;78.11;99645.41;5108866;28;20024;-81
2021/12/22 07:53:08;;;;;;;31.40;16.65;;;;;;;-3.44;78.05;99639.91;5105626;27;20027;-80
2021/12/22 07:55:35;;;;;;;31.08;15.98;;;;;;;-3.45;77.89;99637.38;5113982;27;20027;-79
2021/12/22 07:58:00;;;;;;;34.78;17.52;;;;;;;-3.46;77.56;99643.75;5112007;28;20024;-79
2021/12/22 08:00:27;;;;;;;36.60;18.67;;;;;;;-3.44;77.31;99644.41;5112847;27;20028;-80
2021/12/22 08:02:52;;;;;;;43.00;19.45;;;;;;;-3.40;77.75;99645.72;5111783;28;20026;-80
2021/12/22 08:05:18;;;;;;;50.58;24.60;;;;;;;-3.36;77.79;99647.06;5112078;28;20036;-78
2021/12/22 08:07:43;;;;;;;73.20;34.30;;;;;;;-3.33;78.10;99644.03;5115520;27;20034;-80
2021/12/22 08:10:09;;;;;;;60.78;29.60;;;;;;;-3.29;77.77;99639.16;5112888;27;20554;-79
2021/12/22 08:12:35;;;;;;;56.03;26.90;;;;;;;-3.23;77.80;99640.28;5113393;28;20498;-81
2021/12/22 08:15:01;;;;;;;49.15;22.85;;;;;;;-3.22;77.40;99640.09;5115610;27;20039;-78
2021/12/22 08:17:27;;;;;;;42.78;18.95;;;;;;;-3.21;77.55;99643.63;5113745;27;20475;-78
2021/12/22 08:19:54;;;;;;;40.17;18.15;;;;;;;-3.27;77.46;99645.19;5113457;27;20043;-78
2021/12/22 08:22:19;;;;;;;80.15;30.05;;;;;;;-3.32;77.29;99643.00;5111474;28;20030;-79
2021/12/22 08:24:45;;;;;;;186.82;69.55;;;;;;;-3.34;77.32;99647.72;5112195;28;20019;-88
2021/12/22 08:27:10;;;;;;;136.55;55.72;;;;;;;-3.35;77.24;99646.03;5112512;27;20029;-87
2021/12/22 08:29:41;;;;;;;94.43;41.45;;;;;;;-3.35;76.96;99654.09;5113835;28;20047;-88
2021/12/22 08:32:07;;;;;;;46.80;20.73;;;;;;;-3.29;77.34;99657.94;5112408;28;20736;-82
2021/12/22 08:34:37;;;;;;;36.92;17.15;;;;;;;-3.30;76.94;99646.34;5096682;28;20028;-89
2021/12/22 08:39:46;;;;;;;27.48;13.02;;;;;;;-3.26;77.20;99659.41;5113291;28;19949;-87
2021/12/22 08:42:12;;;;;;;32.30;14.02;;;;;;;-3.29;76.99;99661.44;5113616;27;20020;-88
2021/12/22 08:44:37;;;;;;;34.60;15.77;;;;;;;-3.26;77.15;99662.09;5111473;27;20023;-88
2021/12/22 08:47:03;;;;;;;35.05;16.30;;;;;;;-3.27;77.04;99658.59;5119624;27;20099;-86
2021/12/22 08:49:29;;;;;;;31.83;14.43;;;;;;;-3.24;77.01;99668.94;5120674;27;20046;-86
2021/12/22 08:51:54;;;;;;;30.30;13.93;;;;;;;-3.22;77.17;99672.28;5122515;28;20031;-86
2021/12/22 08:54:19;;;;;;;37.28;17.05;;;;;;;-3.17;77.03;99666.41;5112452;28;20106;-81
2021/12/22 08:56:46;;;;;;;40.95;17.45;;;;;;;-3.14;77.02;99674.94;5114865;27;20027;-80
2021/12/22 08:59:12;;;;;;;25.77;12.25;;;;;;;-3.07;77.15;99682.28;5096336;28;20015;-80
2021/12/22 09:01:38;;;;;;;34.55;13.60;;;;;;;-3.05;76.89;99672.22;5110164;28;20106;-81
2021/12/22 09:04:04;;;;;;;46.10;23.55;;;;;;;-3.01;76.74;99682.41;5092047;28;20134;-80
2021/12/22 09:06:30;;;;;;;33.50;16.75;;;;;;;-2.95;77.17;99672.81;5111617;28;20427;-86
2021/12/22 09:08:55;;;;;;;21.13;10.35;;;;;;;-2.85;76.76;99667.22;5093562;28;20074;-79
2021/12/22 09:11:22;;;;;;;37.85;15.40;;;;;;;-2.80;76.46;99658.59;5110702;28;20023;-86
2021/12/22 09:13:48;;;;;;;23.63;10.98;;;;;;;-2.73;76.95;99668.47;5111324;28;20016;-83
2021/12/22 09:16:14;;;;;;;18.17;9.10;;;;;;;-2.68;75.63;99670.59;5110675;28;20024;-82
2021/12/22 09:18:40;;;;;;;18.08;9.25;;;;;;;-2.68;75.83;99673.28;5108261;27;20084;-87
2021/12/22 09:21:08;;;;;;;42.33;15.10;;;;;;;-2.67;75.32;99676.81;5112281;28;20027;-87
2021/12/22 09:23:34;;;;;;;32.83;14.93;;;;;;;-2.58;75.54;99673.88;5112585;27;20039;-79
2021/12/22 09:26:00;;;;;;;27.05;11.68;;;;;;;-2.41;75.67;99679.94;5112601;28;20023;-78
2021/12/22 09:28:25;;;;;;;26.67;11.52;;;;;;;-2.24;74.60;99679.78;5112896;28;20051;-76
2021/12/22 09:30:51;;;;;;;37.50;14.35;;;;;;;-2.12;75.09;99672.13;5110066;28;20160;-78
2021/12/22 09:33:18;;;;;;;35.08;13.85;;;;;;;-2.02;75.32;99683.44;5113075;28;20123;-80
2021/12/22 09:35:47;;;;;;;23.52;10.23;;;;;;;-1.97;75.19;99677.53;5110156;28;20034;-83
2021/12/22 09:38:13;;;;;;;26.73;12.68;;;;;;;-1.89;74.25;99680.13;5109921;28;20058;-90
2021/12/22 09:40:38;;;;;;;19.38;9.32;;;;;;;-1.77;74.48;99674.28;5110661;28;20711;-77
2021/12/22 09:43:05;;;;;;;32.08;13.73;;;;;;;-1.63;74.79;99673.44;5093663;28;20418;-76
2021/12/22 09:45:32;;;;;;;24.65;12.23;;;;;;;-1.45;74.67;99666.84;5110144;28;20028;-81
2021/12/22 09:48:19;;;;;;;24.52;12.35;;;;;;;-1.37;74.68;99670.25;5108059;28;20042;-79
2021/12/22 09:50:54;;;;;;;23.17;11.65;;;;;;;-1.41;74.27;99663.59;5117379;28;20054;-85
2021/12/22 09:53:24;;;;;;;22.55;11.75;;;;;;;-1.29;74.63;99655.84;5106435;28;20118;-85
2021/12/22 09:55:50;;;;;;;27.75;13.52;;;;;;;-1.19;73.86;99655.53;5113909;28;20057;-85
2021/12/22 09:58:17;;;;;;;20.15;9.63;;;;;;;-1.21;71.96;99653.06;5110374;28;20027;-86
2021/12/22 10:00:45;;;;;;;29.17;13.65;;;;;;;-1.25;72.81;99648.25;5110276;28;20036;-84
2021/12/22 10:03:11;;;;;;;25.77;11.82;;;;;;;-1.25;72.86;99654.44;5106219;28;20055;-84
2021/12/22 10:05:38;;;;;;;25.17;12.02;;;;;;;-1.22;72.20;99643.31;5093151;28;20036;-87
2021/12/22 10:08:06;;;;;;;19.55;9.52;;;;;;;-1.24;72.23;99644.53;5110660;28;20507;-85
2021/12/22 10:10:32;;;;;;;36.30;14.80;;;;;;;-1.18;72.18;99645.63;5112693;28;20062;-85
2021/12/22 10:13:09;;;;;;;20.10;9.25;;;;;;;-1.27;71.75;99640.34;5110070;28;20039;-84
2021/12/22 10:15:36;;;;;;;13.98;7.13;;;;;;;-1.23;71.83;99641.63;5094462;28;20027;-83
2021/12/22 10:18:09;;;;;;;24.65;12.35;;;;;;;-1.10;72.01;99640.13;5116857;27;20050;-79
2021/12/22 10:20:35;;;;;;;31.77;12.88;;;;;;;-0.96;72.25;99630.31;5115998;27;20030;-88
2021/12/22 10:23:01;;;;;;;19.92;9.23;;;;;;;-0.87;72.04;99637.25;5117372;27;20522;-83
2021/12/22 10:25:29;;;;;;;21.98;9.98;;;;;;;-0.85;71.87;99628.97;5112182;27;20055;-80
2021/12/22 10:28:05;;;;;;;26.80;12.43;;;;;;;-0.78;71.64;99633.38;5112583;27;20468;-76
2021/12/22 10:30:35;;;;;;;34.85;15.88;;;;;;;-0.83;71.37;99635.00;5113053;28;20043;-83
2021/12/22 10:33:08;;;;;;;29.07;12.53;;;;;;;-0.96;71.21;99639.22;5112474;28;20059;-82
2021/12/22 10:35:34;;;;;;;32.33;14.35;;;;;;;-1.05;71.00;99645.78;5113188;27;20040;-84
2021/12/22 10:38:02;;;;;;;33.72;17.58;;;;;;;-1.16;71.27;99654.34;5114691;27;20020;-82
2021/12/22 10:40:34;;;;;;;45.28;23.13;;;;;;;-1.30;70.73;99646.09;5111034;28;20020;-81
2021/12/22 10:43:03;;;;;;;48.13;23.13;;;;;;;-1.29;71.02;99650.47;5112074;27;20038;-83
2021/12/22 10:45:31;;;;;;;65.07;32.83;;;;;;;-1.35;71.11;99654.75;5111271;27;20383;-82
2021/12/22 10:50:50;;;;;;;56.15;28.50;;;;;;;-1.44;71.69;99665.84;5114596;27;20089;-82
2021/12/22 10:53:16;;;;;;;42.03;19.02;;;;;;;-1.48;71.45;99653.78;5110813;28;20039;-82
2021/12/22 10:55:44;;;;;;;39.13;16.13;;;;;;;-1.44;71.53;99653.19;5111277;28;20027;-82
2021/12/22 10:58:27;;;;;;;37.70;15.48;;;;;;;-1.51;70.98;99657.66;5109285;28;20032;-82
2021/12/22 11:00:59;;;;;;;53.63;23.48;;;;;;;-1.58;71.29;99654.88;5112009;28;20488;-82
2021/12/22 11:03:35;;;;;;;36.72;17.05;;;;;;;-1.63;71.28;99645.72;5110306;28;20047;-76
2021/12/22 11:06:02;;;;;;;35.63;17.40;;;;;;;-1.67;71.51;99639.88;5107483;27;20036;-78
2021/12/22 11:08:28;;;;;;;37.22;18.25;;;;;;;-1.65;71.56;99644.06;5111640;28;20024;-87
2021/12/22 11:10:53;;;;;;;32.75;15.68;;;;;;;-1.64;71.55;99644.88;5111576;27;20435;-79
2021/12/22 11:13:21;;;;;;;33.13;15.38;;;;;;;-1.61;71.62;99643.66;5111270;28;20148;-79
2021/12/22 11:15:47;;;;;;;29.65;14.60;;;;;;;-1.59;71.73;99641.59;5111863;28;20416;-79
2021/12/22 11:18:29;;;;;;;30.27;13.70;;;;;;;-1.62;71.85;99636.59;5111123;28;20107;-79
2021/12/22 11:21:16;;;;;;;56.50;22.48;;;;;;;-1.67;71.50;99635.34;5091504;28;20051;-78
2021/12/22 11:23:43;;;;;;;119.28;42.00;;;;;;;-1.64;71.71;99636.81;5110964;28;20551;-79
2021/12/22 11:26:09;;;;;;;78.30;33.58;;;;;;;-1.59;71.36;99633.53;5112730;27;20479;-78
2021/12/22 11:28:35;;;;;;;113.97;47.58;;;;;;;-1.56;71.40;99642.09;5111847;28;20046;-79
2021/12/22 11:31:03;;;;;;;103.95;52.33;;;;;;;-1.57;71.45;99629.66;5112223;28;20028;-80
2021/12/22 11:33:31;;;;;;;48.80;20.35;;;;;;;-1.63;71.32;99641.16;5111326;28;20023;-79
2021/12/22 11:35:57;;;;;;;39.78;18.80;;;;;;;-1.65;71.14;99637.81;5110058;28;20065;-77